sensor_id;sensor_type;location;lat;lon;timestamp;pressure;altitude;pressure_sealevel;temperature;humidity
18795;BME280;29610;49.022;12.114;2023-02-14T00:00:09;99705.69;;;4.82;100.00
18795;BME280;29610;49.022;12.114;2023-02-14T00:02:38;99704.28;;;5.03;100.00
18795;BME280;29610;49.022;12.114;2023-02-14T00:05:07;99707.13;;;4.96;100.00
18795;BME280;29610;49.022;12.114;2023-02-14T00:07:36;99701.56;;;5.03;100.00
18795;BME280;29610;49.022;12.114;2023-02-14T00:10:06;99705.09;;;4.92;100.00
18795;BME280;29610;49.022;12.114;2023-02-14T00:12:36;99700.44;;;4.99;100.00
18795;BME280;29610;49.022;12.114;2023-02-14T00:15:06;99703.72;;;4.89;100.00
18795;BME280;29610;49.022;12.114;2023-02-14T00:17:50;99697.25;;;4.90;100.00
18795;BME280;29610;49.022;12.114;2023-02-14T00:20:21;99700.19;;;4.89;100.00
18795;BME280;29610;49.022;12.114;2023-02-14T00:22:51;99701.03;;;4.89;100.00
18795;BME280;29610;49.022;12.114;2023-02-14T00:25:19;99701.97;;;4.83;100.00
18795;BME280;29610;49.022;12.114;2023-02-14T00:27:49;99699.16;;;4.90;100.00
18795;BME280;29610;49.022;12.114;2023-02-14T00:30:20;99701.81;;;5.01;100.00
18795;BME280;29610;49.022;12.114;2023-02-14T00:32:49;99696.66;;;5.00;100.00
18795;BME280;29610;49.022;12.114;2023-02-14T00:35:18;99702.75;;;5.07;100.00
18795;BME280;29610;49.022;12.114;2023-02-14T00:37:47;99704.50;;;5.01;100.00
18795;BME280;29610;49.022;12.114;2023-02-14T00:40:18;99704.03;;;5.04;100.00
18795;BME280;29610;49.022;12.114;2023-02-14T00:42:48;99707.31;;;5.06;100.00
18795;BME280;29610;49.022;12.114;2023-02-14T00:45:17;99704.19;;;4.98;100.00
18795;BME280;29610;49.022;12.114;2023-02-14T00:47:46;99705.94;;;4.92;100.00
18795;BME280;29610;49.022;12.114;2023-02-14T00:50:15;99716.94;;;4.91;100.00
18795;BME280;29610;49.022;12.114;2023-02-14T00:52:44;99709.09;;;4.89;100.00
18795;BME280;29610;49.022;12.114;2023-02-14T00:55:13;99701.00;;;5.01;100.00
18795;BME280;29610;49.022;12.114;2023-02-14T00:57:42;99707.25;;;4.90;100.00
18795;BME280;29610;49.022;12.114;2023-02-14T01:00:14;99703.59;;;4.96;100.00
18795;BME280;29610;49.022;12.114;2023-02-14T01:02:42;99708.75;;;5.09;100.00
18795;BME280;29610;49.022;12.114;2023-02-14T01:05:11;99705.69;;;5.05;100.00
18795;BME280;29610;49.022;12.114;2023-02-14T01:07:40;99706.41;;;5.01;100.00
18795;BME280;29610;49.022;12.114;2023-02-14T01:10:10;99717.78;;;4.91;100.00
18795;BME280;29610;49.022;12.114;2023-02-14T01:12:39;99714.59;;;4.94;100.00
18795;BME280;29610;49.022;12.114;2023-02-14T01:15:08;99713.53;;;4.95;100.00
18795;BME280;29610;49.022;12.114;2023-02-14T01:17:38;99712.59;;;5.01;100.00
18795;BME280;29610;49.022;12.114;2023-02-14T01:20:09;99708.03;;;5.13;100.00
18795;BME280;29610;49.022;12.114;2023-02-14T01:22:37;99705.81;;;5.10;100.00
18795;BME280;29610;49.022;12.114;2023-02-14T01:25:06;99704.75;;;5.00;100.00
18795;BME280;29610;49.022;12.114;2023-02-14T01:27:36;99704.53;;;4.90;100.00
18795;BME280;29610;49.022;12.114;2023-02-14T01:30:06;99707.31;;;4.95;100.00
18795;BME280;29610;49.022;12.114;2023-02-14T01:32:37;99706.06;;;4.86;100.00
18795;BME280;29610;49.022;12.114;2023-02-14T01:35:06;99713.44;;;4.90;100.00
18795;BME280;29610;49.022;12.114;2023-02-14T01:37:35;99716.94;;;4.91;100.00
18795;BME280;29610;49.022;12.114;2023-02-14T01:40:06;99712.16;;;4.93;100.00
18795;BME280;29610;49.022;12.114;2023-02-14T01:42:36;99703.25;;;4.81;100.00
18795;BME280;29610;49.022;12.114;2023-02-14T01:45:08;99702.88;;;4.89;100.00
18795;BME280;29610;49.022;12.114;2023-02-14T01:47:45;99707.00;;;4.91;100.00
18795;BME280;29610;49.022;12.114;2023-02-14T01:50:24;99707.00;;;4.91;100.00
18795;BME280;29610;49.022;12.114;2023-02-14T01:52:56;99707.69;;;4.87;100.00
18795;BME280;29610;49.022;12.114;2023-02-14T01:55:30;99703.13;;;4.87;100.00
18795;BME280;29610;49.022;12.114;2023-02-14T01:58:03;99705.59;;;4.89;100.00
18795;BME280;29610;49.022;12.114;2023-02-14T02:00:36;99705.69;;;4.82;100.00
18795;BME280;29610;49.022;12.114;2023-02-14T02:03:29;99702.09;;;4.88;100.00
18795;BME280;29610;49.022;12.114;2023-02-14T02:06:10;99696.22;;;4.91;100.00
18795;BME280;29610;49.022;12.114;2023-02-14T02:08:49;99693.16;;;4.99;100.00
18795;BME280;29610;49.022;12.114;2023-02-14T02:11:21;99683.56;;;4.92;100.00
18795;BME280;29610;49.022;12.114;2023-02-14T02:13:49;99678.63;;;4.89;100.00
18795;BME280;29610;49.022;12.114;2023-02-14T02:16:38;99677.38;;;4.91;100.00
18795;BME280;29610;49.022;12.114;2023-02-14T02:26:51;99682.63;;;4.86;100.00
18795;BME280;29610;49.022;12.114;2023-02-14T02:33:49;99673.72;;;4.86;100.00
18795;BME280;29610;49.022;12.114;2023-02-14T02:36:51;99675.94;;;4.89;100.00
18795;BME280;29610;49.022;12.114;2023-02-14T02:39:44;99689.19;;;4.90;100.00
18795;BME280;29610;49.022;12.114;2023-02-14T02:42:28;99689.06;;;4.85;100.00
18795;BME280;29610;49.022;12.114;2023-02-14T02:45:10;99687.19;;;4.86;100.00
18795;BME280;29610;49.022;12.114;2023-02-14T02:47:52;99682.66;;;4.75;100.00
18795;BME280;29610;49.022;12.114;2023-02-14T02:50:28;99690.03;;;4.56;100.00
18795;BME280;29610;49.022;12.114;2023-02-14T02:53:26;99688.03;;;4.75;100.00
18795;BME280;29610;49.022;12.114;2023-02-14T02:56:04;99694.00;;;4.77;100.00
18795;BME280;29610;49.022;12.114;2023-02-14T02:58:57;99691.31;;;4.77;100.00
18795;BME280;29610;49.022;12.114;2023-02-14T03:01:32;99677.63;;;4.78;100.00
18795;BME280;29610;49.022;12.114;2023-02-14T03:04:07;99685.34;;;4.75;100.00
18795;BME280;29610;49.022;12.114;2023-02-14T03:06:58;99673.13;;;4.84;100.00
18795;BME280;29610;49.022;12.114;2023-02-14T03:09:53;99673.63;;;4.81;100.00
18795;BME280;29610;49.022;12.114;2023-02-14T03:16:20;99677.03;;;4.76;100.00
18795;BME280;29610;49.022;12.114;2023-02-14T03:19:40;99673.38;;;4.82;100.00
18795;BME280;29610;49.022;12.114;2023-02-14T03:22:49;99675.75;;;4.79;100.00
18795;BME280;29610;49.022;12.114;2023-02-14T03:25:42;99677.25;;;4.86;100.00
18795;BME280;29610;49.022;12.114;2023-02-14T03:28:19;99669.53;;;4.90;100.00
18795;BME280;29610;49.022;12.114;2023-02-14T03:31:01;99670.47;;;4.61;100.00
18795;BME280;29610;49.022;12.114;2023-02-14T03:33:44;99667.44;;;4.80;100.00
18795;BME280;29610;49.022;12.114;2023-02-14T03:36:21;99671.97;;;4.80;100.00
18795;BME280;29610;49.022;12.114;2023-02-14T03:39:00;99670.44;;;4.84;100.00
18795;BME280;29610;49.022;12.114;2023-02-14T03:41:39;99672.66;;;4.87;100.00
18795;BME280;29610;49.022;12.114;2023-02-14T03:44:16;99681.94;;;4.79;100.00
18795;BME280;29610;49.022;12.114;2023-02-14T03:46:53;99680.06;;;4.80;100.00
18795;BME280;29610;49.022;12.114;2023-02-14T03:49:30;99678.53;;;4.84;100.00
18795;BME280;29610;49.022;12.114;2023-02-14T03:52:04;99681.56;;;4.76;100.00
18795;BME280;29610;49.022;12.114;2023-02-14T03:54:35;99683.59;;;4.80;100.00
18795;BME280;29610;49.022;12.114;2023-02-14T03:57:14;99683.91;;;4.84;100.00
18795;BME280;29610;49.022;12.114;2023-02-14T03:59:46;99683.69;;;4.85;100.00
18795;BME280;29610;49.022;12.114;2023-02-14T04:02:23;99689.91;;;4.74;100.00
18795;BME280;29610;49.022;12.114;2023-02-14T04:04:57;99692.25;;;4.59;100.00
18795;BME280;29610;49.022;12.114;2023-02-14T04:07:28;99684.31;;;4.64;100.00
18795;BME280;29610;49.022;12.114;2023-02-14T04:09:56;99675.88;;;4.61;100.00
18795;BME280;29610;49.022;12.114;2023-02-14T04:12:26;99686.75;;;4.54;100.00
18795;BME280;29610;49.022;12.114;2023-02-14T04:15:05;99682.88;;;4.62;100.00
18795;BME280;29610;49.022;12.114;2023-02-14T04:17:34;99687.09;;;4.46;100.00
18795;BME280;29610;49.022;12.114;2023-02-14T04:20:21;99684.88;;;4.43;100.00
18795;BME280;29610;49.022;12.114;2023-02-14T04:22:49;99689.09;;;4.50;100.00
18795;BME280;29610;49.022;12.114;2023-02-14T04:25:19;99679.84;;;4.46;100.00
18795;BME280;29610;49.022;12.114;2023-02-14T04:27:50;99680.75;;;4.40;100.00
18795;BME280;29610;49.022;12.114;2023-02-14T04:30:19;99672.34;;;4.37;100.00
18795;BME280;29610;49.022;12.114;2023-02-14T04:32:49;99676.91;;;4.36;100.00
18795;BME280;29610;49.022;12.114;2023-02-14T04:35:17;99670.69;;;4.36;100.00
18795;BME280;29610;49.022;12.114;2023-02-14T04:37:46;99670.81;;;4.41;100.00
18795;BME280;29610;49.022;12.114;2023-02-14T04:40:14;99671.78;;;4.46;100.00
18795;BME280;29610;49.022;12.114;2023-02-14T04:42:44;99674.81;;;4.38;100.00
18795;BME280;29610;49.022;12.114;2023-02-14T04:45:14;99657.13;;;4.31;100.00
18795;BME280;29610;49.022;12.114;2023-02-14T04:47:43;99662.28;;;4.21;100.00
18795;BME280;29610;49.022;12.114;2023-02-14T04:50:13;99665.44;;;4.18;100.00
18795;BME280;29610;49.022;12.114;2023-02-14T04:52:41;99663.09;;;4.10;100.00
18795;BME280;29610;49.022;12.114;2023-02-14T04:55:10;99661.91;;;4.17;100.00
18795;BME280;29610;49.022;12.114;2023-02-14T04:57:39;99666.59;;;4.10;100.00
18795;BME280;29610;49.022;12.114;2023-02-14T05:00:09;99666.44;;;4.05;100.00
18795;BME280;29610;49.022;12.114;2023-02-14T05:02:39;99668.91;;;4.07;100.00
18795;BME280;29610;49.022;12.114;2023-02-14T05:05:08;99669.03;;;4.12;100.00
18795;BME280;29610;49.022;12.114;2023-02-14T05:07:37;99668.81;;;4.02;100.00
18795;BME280;29610;49.022;12.114;2023-02-14T05:10:07;99673.50;;;4.06;100.00
18795;BME280;29610;49.022;12.114;2023-02-14T05:12:36;99670.22;;;4.04;100.00
18795;BME280;29610;49.022;12.114;2023-02-14T05:15:05;99664.81;;;4.04;100.00
18795;BME280;29610;49.022;12.114;2023-02-14T05:17:33;99668.09;;;3.95;100.00
18795;BME280;29610;49.022;12.114;2023-02-14T05:20:06;99662.22;;;3.86;100.00
18795;BME280;29610;49.022;12.114;2023-02-14T05:22:35;99663.88;;;3.87;100.00
18795;BME280;29610;49.022;12.114;2023-02-14T05:25:05;99657.78;;;3.92;100.00
18795;BME280;29610;49.022;12.114;2023-02-14T05:27:34;99662.44;;;3.85;100.00
18795;BME280;29610;49.022;12.114;2023-02-14T05:30:04;99669.38;;;3.92;100.00
18795;BME280;29610;49.022;12.114;2023-02-14T05:32:33;99666.41;;;3.82;100.00
18795;BME280;29610;49.022;12.114;2023-02-14T05:35:01;99667.13;;;3.78;100.00
18795;BME280;29610;49.022;12.114;2023-02-14T05:37:31;99672.72;;;3.88;100.00
18795;BME280;29610;49.022;12.114;2023-02-14T05:40:00;99664.88;;;3.75;100.00
18795;BME280;29610;49.022;12.114;2023-02-14T05:42:29;99669.66;;;3.73;100.00
18795;BME280;29610;49.022;12.114;2023-02-14T05:44:58;99678.19;;;3.70;100.00
18795;BME280;29610;49.022;12.114;2023-02-14T05:47:26;99674.91;;;3.68;100.00
18795;BME280;29610;49.022;12.114;2023-02-14T05:49:55;99672.97;;;3.75;100.00
18795;BME280;29610;49.022;12.114;2023-02-14T05:52:23;99673.84;;;3.69;100.00
18795;BME280;29610;49.022;12.114;2023-02-14T05:54:53;99685.06;;;3.66;100.00
18795;BME280;29610;49.022;12.114;2023-02-14T05:57:22;99688.59;;;3.66;100.00
18795;BME280;29610;49.022;12.114;2023-02-14T05:59:51;99687.03;;;3.59;100.00
18795;BME280;29610;49.022;12.114;2023-02-14T06:02:19;99680.63;;;3.42;100.00
18795;BME280;29610;49.022;12.114;2023-02-14T06:04:48;99684.06;;;3.49;100.00
18795;BME280;29610;49.022;12.114;2023-02-14T06:07:17;99691.06;;;3.50;100.00
18795;BME280;29610;49.022;12.114;2023-02-14T06:09:45;99692.25;;;3.24;100.00
18795;BME280;29610;49.022;12.114;2023-02-14T06:12:15;99693.06;;;3.25;100.00
18795;BME280;29610;49.022;12.114;2023-02-14T06:14:44;99693.16;;;3.18;100.00
18795;BME280;29610;49.022;12.114;2023-02-14T06:17:13;99690.84;;;3.22;100.00
18795;BME280;29610;49.022;12.114;2023-02-14T06:19:42;99695.59;;;3.20;100.00
18795;BME280;29610;49.022;12.114;2023-02-14T06:22:10;99695.16;;;3.23;100.00
18795;BME280;29610;49.022;12.114;2023-02-14T06:24:39;99689.94;;;3.28;100.00
18795;BME280;29610;49.022;12.114;2023-02-14T06:27:08;99684.09;;;3.31;100.00
18795;BME280;29610;49.022;12.114;2023-02-14T06:29:38;99696.00;;;3.23;100.00
18795;BME280;29610;49.022;12.114;2023-02-14T06:32:06;99696.97;;;3.11;100.00
18795;BME280;29610;49.022;12.114;2023-02-14T06:34:36;99704.72;;;3.19;100.00
18795;BME280;29610;49.022;12.114;2023-02-14T06:37:06;99700.63;;;2.98;100.00
18795;BME280;29610;49.022;12.114;2023-02-14T06:39:35;99701.13;;;3.25;100.00
18795;BME280;29610;49.022;12.114;2023-02-14T06:42:03;99707.19;;;3.20;100.00
18795;BME280;29610;49.022;12.114;2023-02-14T06:44:32;99694.88;;;3.13;100.00
18795;BME280;29610;49.022;12.114;2023-02-14T06:47:02;99696.66;;;3.19;100.00
18795;BME280;29610;49.022;12.114;2023-02-14T06:49:31;99697.69;;;3.18;100.00
18795;BME280;29610;49.022;12.114;2023-02-14T06:52:00;99699.50;;;3.24;100.00
18795;BME280;29610;49.022;12.114;2023-02-14T06:54:28;99692.38;;;3.29;100.00
18795;BME280;29610;49.022;12.114;2023-02-14T06:56:57;99690.63;;;3.23;100.00
18795;BME280;29610;49.022;12.114;2023-02-14T06:59:26;99696.75;;;3.30;100.00
18795;BME280;29610;49.022;12.114;2023-02-14T07:01:54;99687.63;;;3.31;100.00
18795;BME280;29610;49.022;12.114;2023-02-14T07:04:25;99693.59;;;3.33;100.00
18795;BME280;29610;49.022;12.114;2023-02-14T07:06:53;99690.16;;;3.26;100.00
18795;BME280;29610;49.022;12.114;2023-02-14T07:09:22;99684.63;;;3.21;100.00
18795;BME280;29610;49.022;12.114;2023-02-14T07:11:51;99682.69;;;3.28;100.00
18795;BME280;29610;49.022;12.114;2023-02-14T07:14:20;99681.25;;;3.26;100.00
18795;BME280;29610;49.022;12.114;2023-02-14T07:16:49;99675.41;;;3.47;100.00
18795;BME280;29610;49.022;12.114;2023-02-14T07:19:18;99676.25;;;3.47;100.00
18795;BME280;29610;49.022;12.114;2023-02-14T07:21:48;99674.00;;;3.44;100.00
18795;BME280;29610;49.022;12.114;2023-02-14T07:24:16;99670.31;;;3.57;100.00
18795;BME280;29610;49.022;12.114;2023-02-14T07:26:45;99673.22;;;3.55;100.00
18795;BME280;29610;49.022;12.114;2023-02-14T07:29:14;99671.06;;;3.64;100.00
18795;BME280;29610;49.022;12.114;2023-02-14T07:31:43;99659.38;;;3.70;100.00
18795;BME280;29610;49.022;12.114;2023-02-14T07:34:11;99665.88;;;3.62;100.00
18795;BME280;29610;49.022;12.114;2023-02-14T07:36:40;99664.47;;;3.60;100.00
18795;BME280;29610;49.022;12.114;2023-02-14T07:39:11;99656.34;;;3.78;100.00
18795;BME280;29610;49.022;12.114;2023-02-14T07:41:40;99656.59;;;3.88;100.00
18795;BME280;29610;49.022;12.114;2023-02-14T07:44:09;99656.50;;;3.94;100.00
18795;BME280;29610;49.022;12.114;2023-02-14T07:46:38;99659.50;;;3.75;100.00
18795;BME280;29610;49.022;12.114;2023-02-14T07:49:08;99659.06;;;3.89;100.00
18795;BME280;29610;49.022;12.114;2023-02-14T07:51:37;99651.69;;;3.85;100.00
18795;BME280;29610;49.022;12.114;2023-02-14T07:54:05;99645.59;;;3.89;100.00
18795;BME280;29610;49.022;12.114;2023-02-14T07:56:35;99646.28;;;3.85;100.00
18795;BME280;29610;49.022;12.114;2023-02-14T07:59:04;99651.34;;;3.93;100.00
18795;BME280;29610;49.022;12.114;2023-02-14T08:01:33;99650.88;;;3.96;100.00
18795;BME280;29610;49.022;12.114;2023-02-14T08:04:01;99645.41;;;4.14;100.00
18795;BME280;29610;49.022;12.114;2023-02-14T08:06:30;99650.31;;;4.17;100.00
18795;BME280;29610;49.022;12.114;2023-02-14T08:08:59;99652.31;;;4.21;100.00
18795;BME280;29610;49.022;12.114;2023-02-14T08:11:28;99650.31;;;4.05;100.00
18795;BME280;29610;49.022;12.114;2023-02-14T08:14:15;99648.13;;;4.25;100.00
18795;BME280;29610;49.022;12.114;2023-02-14T08:16:44;99659.72;;;4.49;100.00
18795;BME280;29610;49.022;12.114;2023-02-14T08:19:13;99663.59;;;4.41;100.00
18795;BME280;29610;49.022;12.114;2023-02-14T08:21:41;99658.41;;;4.51;100.00
18795;BME280;29610;49.022;12.114;2023-02-14T08:24:10;99664.63;;;4.64;100.00
18795;BME280;29610;49.022;12.114;2023-02-14T08:26:38;99663.00;;;4.51;100.00
18795;BME280;29610;49.022;12.114;2023-02-14T08:29:07;99663.44;;;4.71;100.00
18795;BME280;29610;49.022;12.114;2023-02-14T08:31:37;99653.72;;;4.70;100.00
18795;BME280;29610;49.022;12.114;2023-02-14T08:34:06;99650.56;;;4.50;100.00
18795;BME280;29610;49.022;12.114;2023-02-14T08:36:35;99658.53;;;4.68;100.00
18795;BME280;29610;49.022;12.114;2023-02-14T08:39:05;99660.91;;;4.53;100.00
18795;BME280;29610;49.022;12.114;2023-02-14T08:41:34;99656.19;;;4.60;100.00
18795;BME280;29610;49.022;12.114;2023-02-14T08:44:03;99648.22;;;4.77;100.00
18795;BME280;29610;49.022;12.114;2023-02-14T08:46:31;99651.94;;;4.87;100.00
18795;BME280;29610;49.022;12.114;2023-02-14T08:49:02;99643.25;;;4.97;100.00
18795;BME280;29610;49.022;12.114;2023-02-14T08:51:30;99646.16;;;5.07;100.00
18795;BME280;29610;49.022;12.114;2023-02-14T08:54:00;99644.06;;;5.09;100.00
18795;BME280;29610;49.022;12.114;2023-02-14T08:56:28;99648.66;;;4.85;100.00
18795;BME280;29610;49.022;12.114;2023-02-14T08:58:57;99654.22;;;5.18;100.00
18795;BME280;29610;49.022;12.114;2023-02-14T09:01:25;99645.06;;;5.19;100.00
18795;BME280;29610;49.022;12.114;2023-02-14T09:03:55;99647.03;;;5.24;100.00
18795;BME280;29610;49.022;12.114;2023-02-14T09:06:25;99657.63;;;5.14;100.00
18795;BME280;29610;49.022;12.114;2023-02-14T09:08:54;99653.91;;;5.03;100.00
18795;BME280;29610;49.022;12.114;2023-02-14T09:11:24;99655.72;;;4.75;100.00
18795;BME280;29610;49.022;12.114;2023-02-14T09:13:53;99655.56;;;4.93;100.00
18795;BME280;29610;49.022;12.114;2023-02-14T09:16:23;99649.94;;;4.94;100.00
18795;BME280;29610;49.022;12.114;2023-02-14T09:18:53;99645.03;;;4.91;100.00
18795;BME280;29610;49.022;12.114;2023-02-14T09:21:27;99646.06;;;5.02;100.00
18795;BME280;29610;49.022;12.114;2023-02-14T09:23:57;99650.63;;;5.01;100.00
18795;BME280;29610;49.022;12.114;2023-02-14T09:26:25;99651.50;;;4.79;100.00
18795;BME280;29610;49.022;12.114;2023-02-14T09:28:55;99645.03;;;4.80;100.00
18795;BME280;29610;49.022;12.114;2023-02-14T09:31:24;99653.97;;;4.80;100.00
18795;BME280;29610;49.022;12.114;2023-02-14T09:33:53;99655.09;;;4.84;100.00
18795;BME280;29610;49.022;12.114;2023-02-14T09:36:41;99654.84;;;4.97;100.00
18795;BME280;29610;49.022;12.114;2023-02-14T09:39:09;99659.25;;;5.15;100.00
18795;BME280;29610;49.022;12.114;2023-02-14T09:42:00;99660.09;;;5.15;100.00
18795;BME280;29610;49.022;12.114;2023-02-14T09:44:35;99658.81;;;5.06;100.00
18795;BME280;29610;49.022;12.114;2023-02-14T09:47:18;99654.34;;;5.12;100.00
18795;BME280;29610;49.022;12.114;2023-02-14T09:49:52;99649.19;;;5.10;100.00
18795;BME280;29610;49.022;12.114;2023-02-14T09:52:27;99644.53;;;5.06;100.00
18795;BME280;29610;49.022;12.114;2023-02-14T09:55:00;99651.09;;;4.87;100.00
18795;BME280;29610;49.022;12.114;2023-02-14T09:57:42;99650.09;;;5.16;100.00
18795;BME280;29610;49.022;12.114;2023-02-14T10:00:21;99650.91;;;5.28;100.00
18795;BME280;29610;49.022;12.114;2023-02-14T10:03:05;99650.94;;;5.16;100.00
18795;BME280;29610;49.022;12.114;2023-02-14T10:05:49;99646.25;;;5.23;100.00
18795;BME280;29610;49.022;12.114;2023-02-14T10:08:40;99647.75;;;5.19;100.00
18795;BME280;29610;49.022;12.114;2023-02-14T10:11:17;99644.59;;;5.11;100.00
18795;BME280;29610;49.022;12.114;2023-02-14T10:13:52;99641.38;;;4.97;100.00
18795;BME280;29610;49.022;12.114;2023-02-14T10:16:25;99647.31;;;5.11;100.00
18795;BME280;29610;49.022;12.114;2023-02-14T10:19:01;99639.41;;;5.32;100.00
18795;BME280;29610;49.022;12.114;2023-02-14T10:21:41;99643.53;;;5.23;100.00
18795;BME280;29610;49.022;12.114;2023-02-14T10:24:24;99639.84;;;5.41;100.00
18795;BME280;29610;49.022;12.114;2023-02-14T10:27:02;99639.63;;;5.31;100.00
18795;BME280;29610;49.022;12.114;2023-02-14T10:29:37;99642.28;;;5.42;100.00
18795;BME280;29610;49.022;12.114;2023-02-14T10:32:13;99644.88;;;5.65;100.00
18795;BME280;29610;49.022;12.114;2023-02-14T10:34:48;99636.81;;;5.37;100.00
18795;BME280;29610;49.022;12.114;2023-02-14T10:37:47;99637.91;;;5.53;100.00
18795;BME280;29610;49.022;12.114;2023-02-14T10:41:00;99635.31;;;5.74;100.00
18795;BME280;29610;49.022;12.114;2023-02-14T10:43:42;99634.16;;;5.82;100.00
18795;BME280;29610;49.022;12.114;2023-02-14T10:46:30;99633.84;;;5.95;100.00
18795;BME280;29610;49.022;12.114;2023-02-14T10:49:16;99619.28;;;6.13;100.00
18795;BME280;29610;49.022;12.114;2023-02-14T10:51:55;99621.97;;;6.13;100.00
18795;BME280;29610;49.022;12.114;2023-02-14T10:54:35;99617.00;;;6.05;100.00
18795;BME280;29610;49.022;12.114;2023-02-14T10:57:13;99616.91;;;6.00;100.00
18795;BME280;29610;49.022;12.114;2023-02-14T10:59:51;99624.22;;;5.71;100.00
18795;BME280;29610;49.022;12.114;2023-02-14T11:02:29;99622.28;;;5.83;100.00
18795;BME280;29610;49.022;12.114;2023-02-14T11:05:01;99620.25;;;5.90;100.00
18795;BME280;29610;49.022;12.114;2023-02-14T11:07:30;99619.50;;;5.94;100.00
18795;BME280;29610;49.022;12.114;2023-02-14T11:10:00;99612.72;;;6.09;100.00
18795;BME280;29610;49.022;12.114;2023-02-14T11:12:36;99614.22;;;6.00;100.00
18795;BME280;29610;49.022;12.114;2023-02-14T11:15:19;99617.88;;;6.10;100.00
18795;BME280;29610;49.022;12.114;2023-02-14T11:18:07;99607.66;;;6.12;100.00
18795;BME280;29610;49.022;12.114;2023-02-14T11:20:36;99603.91;;;5.97;100.00
18795;BME280;29610;49.022;12.114;2023-02-14T11:23:19;99605.38;;;6.04;100.00
18795;BME280;29610;49.022;12.114;2023-02-14T11:25:53;99601.25;;;6.02;100.00
18795;BME280;29610;49.022;12.114;2023-02-14T11:28:24;99598.72;;;6.12;100.00
18795;BME280;29610;49.022;12.114;2023-02-14T11:30:53;99601.44;;;6.28;100.00
18795;BME280;29610;49.022;12.114;2023-02-14T11:33:34;99601.59;;;6.22;100.00
18795;BME280;29610;49.022;12.114;2023-02-14T11:36:10;99593.31;;;6.28;100.00
18795;BME280;29610;49.022;12.114;2023-02-14T11:38:40;99595.09;;;6.39;100.00
18795;BME280;29610;49.022;12.114;2023-02-14T11:41:13;99582.19;;;6.41;100.00
18795;BME280;29610;49.022;12.114;2023-02-14T11:43:44;99579.53;;;6.46;100.00
18795;BME280;29610;49.022;12.114;2023-02-14T11:46:26;99581.19;;;6.47;100.00
18795;BME280;29610;49.022;12.114;2023-02-14T11:49:00;99571.63;;;6.61;100.00
18795;BME280;29610;49.022;12.114;2023-02-14T11:51:33;99572.09;;;6.37;100.00
18795;BME280;29610;49.022;12.114;2023-02-14T11:54:04;99565.69;;;5.88;100.00
18795;BME280;29610;49.022;12.114;2023-02-14T11:56:50;99565.09;;;5.69;100.00
18795;BME280;29610;49.022;12.114;2023-02-14T11:59:36;99559.41;;;6.16;100.00
18795;BME280;29610;49.022;12.114;2023-02-14T12:02:26;99555.25;;;5.91;100.00
18795;BME280;29610;49.022;12.114;2023-02-14T12:04:59;99550.22;;;5.67;100.00
18795;BME280;29610;49.022;12.114;2023-02-14T12:07:32;99544.75;;;5.78;100.00
18795;BME280;29610;49.022;12.114;2023-02-14T12:10:20;99546.03;;;5.43;100.00
18795;BME280;29610;49.022;12.114;2023-02-14T12:12:53;99539.66;;;5.49;100.00
18795;BME280;29610;49.022;12.114;2023-02-14T12:15:32;99541.06;;;5.07;100.00
18795;BME280;29610;49.022;12.114;2023-02-14T12:18:40;99544.78;;;4.78;100.00
18795;BME280;29610;49.022;12.114;2023-02-14T12:21:39;99540.09;;;4.85;100.00
18795;BME280;29610;49.022;12.114;2023-02-14T12:24:22;99536.72;;;4.78;100.00
18795;BME280;29610;49.022;12.114;2023-02-14T12:27:06;99531.94;;;4.68;100.00
18795;BME280;29610;49.022;12.114;2023-02-14T12:29:47;99530.19;;;4.74;100.00
18795;BME280;29610;49.022;12.114;2023-02-14T12:32:24;99529.31;;;5.13;100.00
18795;BME280;29610;49.022;12.114;2023-02-14T12:35:05;99517.84;;;5.50;100.00
18795;BME280;29610;49.022;12.114;2023-02-14T12:37:58;99514.31;;;5.66;100.00
18795;BME280;29610;49.022;12.114;2023-02-14T12:40:45;99514.16;;;5.73;100.00
18795;BME280;29610;49.022;12.114;2023-02-14T12:43:49;99513.59;;;5.54;100.00
18795;BME280;29610;49.022;12.114;2023-02-14T12:46:46;99519.59;;;5.28;100.00
18795;BME280;29610;49.022;12.114;2023-02-14T12:49:38;99505.19;;;5.67;100.00
18795;BME280;29610;49.022;12.114;2023-02-14T12:52:31;99505.09;;;5.79;100.00
18795;BME280;29610;49.022;12.114;2023-02-14T12:55:28;99500.09;;;6.04;100.00
18795;BME280;29610;49.022;12.114;2023-02-14T12:58:12;99499.00;;;6.22;100.00
18795;BME280;29610;49.022;12.114;2023-02-14T13:01:00;99495.38;;;6.33;100.00
18795;BME280;29610;49.022;12.114;2023-02-14T13:07:07;99504.41;;;6.43;100.00
18795;BME280;29610;49.022;12.114;2023-02-14T13:09:49;99499.38;;;6.52;100.00
18795;BME280;29610;49.022;12.114;2023-02-14T13:12:33;99498.13;;;6.59;100.00
18795;BME280;29610;49.022;12.114;2023-02-14T13:15:18;99488.88;;;6.12;100.00
18795;BME280;29610;49.022;12.114;2023-02-14T13:17:54;99491.75;;;6.27;100.00
18795;BME280;29610;49.022;12.114;2023-02-14T13:20:39;99492.22;;;6.41;100.00
18795;BME280;29610;49.022;12.114;2023-02-14T13:23:15;99488.94;;;6.39;100.00
18795;BME280;29610;49.022;12.114;2023-02-14T13:25:51;99489.22;;;6.59;100.00
18795;BME280;29610;49.022;12.114;2023-02-14T13:28:21;99482.81;;;6.65;100.00
18795;BME280;29610;49.022;12.114;2023-02-14T13:30:53;99480.47;;;6.52;100.00
18795;BME280;29610;49.022;12.114;2023-02-14T13:33:29;99479.47;;;6.36;100.00
18795;BME280;29610;49.022;12.114;2023-02-14T13:36:07;99487.50;;;6.31;100.00
18795;BME280;29610;49.022;12.114;2023-02-14T13:38:44;99475.03;;;6.25;100.00
18795;BME280;29610;49.022;12.114;2023-02-14T13:41:17;99477.25;;;6.12;100.00
18795;BME280;29610;49.022;12.114;2023-02-14T13:43:52;99475.78;;;6.21;100.00
18795;BME280;29610;49.022;12.114;2023-02-14T13:46:46;99468.22;;;6.01;100.00